createdAt,value
2016-09-28T00:00:12.519Z,22.29
2016-09-28T00:01:11.602Z,22.32
2016-09-28T00:02:10.638Z,22.31
2016-09-28T00:03:11.889Z,22.34
2016-09-28T00:04:10.717Z,22.33
2016-09-28T00:05:12.835Z,22.33
2016-09-28T00:06:11.777Z,22.35
2016-09-28T00:07:11.763Z,22.34
2016-09-28T00:08:12.617Z,21.80
2016-09-28T00:09:09.869Z,21.74
2016-09-28T00:10:12.370Z,21.72
2016-09-28T00:11:10.580Z,21.71
2016-09-28T00:12:11.887Z,21.70
2016-09-28T00:13:12.868Z,21.69
2016-09-28T00:14:11.859Z,21.69
2016-09-28T00:15:13.467Z,21.69
2016-09-28T00:16:12.755Z,21.72
2016-09-28T00:17:13.437Z,21.68
2016-09-28T00:18:12.450Z,21.69
2016-09-28T00:19:13.165Z,21.67
2016-09-28T00:20:15.029Z,21.68
2016-09-28T00:21:12.017Z,21.68
2016-09-28T00:22:13.717Z,21.67
2016-09-28T00:23:11.612Z,21.68
2016-09-28T00:24:12.233Z,21.72
2016-09-28T00:25:12.262Z,21.68
2016-09-28T00:26:13.057Z,21.67
2016-09-28T00:27:12.596Z,21.68
2016-09-28T00:28:11.606Z,21.67
2016-09-28T00:29:11.606Z,21.68
2016-09-28T00:30:11.715Z,21.67
2016-09-28T00:31:12.497Z,21.67
2016-09-28T00:32:13.056Z,21.68
2016-09-28T00:33:12.056Z,21.67
2016-09-28T00:34:12.489Z,21.71
2016-09-28T00:35:13.216Z,21.68
2016-09-28T00:36:12.322Z,21.67
2016-09-28T00:37:12.177Z,21.68
2016-09-28T00:38:12.177Z,21.68
2016-09-28T00:39:12.785Z,21.67
2016-09-28T00:40:12.832Z,21.69
2016-09-28T00:41:12.535Z,21.68
2016-09-28T00:42:12.649Z,21.68
2016-09-28T00:43:11.756Z,21.67
2016-09-28T00:44:11.695Z,21.68
2016-09-28T00:45:11.613Z,21.68
2016-09-28T00:46:11.557Z,21.68
2016-09-28T00:47:11.537Z,21.68
2016-09-28T00:48:12.448Z,21.67
2016-09-28T00:49:14.226Z,21.67
2016-09-28T00:50:10.262Z,21.67
2016-09-28T00:51:11.076Z,22.20
2016-09-28T00:52:12.907Z,22.27
2016-09-28T00:53:10.508Z,22.29
2016-09-28T00:54:12.400Z,21.76
2016-09-28T00:55:14.815Z,21.71
2016-09-28T00:56:11.883Z,21.70
2016-09-28T00:57:11.865Z,21.69
2016-09-28T00:58:12.605Z,21.68
2016-09-28T00:59:12.150Z,21.73
2016-09-28T01:00:13.760Z,21.68
2016-09-28T01:01:13.198Z,21.67
2016-09-28T01:02:12.703Z,21.67
2016-09-28T01:03:15.803Z,21.67
2016-09-28T01:04:11.941Z,21.67
2016-09-28T01:05:11.928Z,21.67
2016-09-28T01:06:14.514Z,21.66
2016-09-28T01:07:13.082Z,21.67
2016-09-28T01:08:12.268Z,21.66
2016-09-28T01:09:14.865Z,21.68
2016-09-28T01:10:12.643Z,21.72
2016-09-28T01:11:12.475Z,21.67
2016-09-28T01:12:13.006Z,21.70
2016-09-28T01:13:12.087Z,21.68
2016-09-28T01:14:12.966Z,21.66
2016-09-28T01:15:14.653Z,21.69
2016-09-28T01:16:14.028Z,21.68
2016-09-28T01:17:13.693Z,21.67
2016-09-28T01:18:14.191Z,21.67
2016-09-28T01:19:11.682Z,21.66
2016-09-28T01:20:15.104Z,21.66
2016-09-28T01:21:12.016Z,21.67
2016-09-28T01:22:14.193Z,21.68
2016-09-28T01:23:13.014Z,21.67
2016-09-28T01:24:12.814Z,21.66
2016-09-28T01:25:13.248Z,21.66
2016-09-28T01:26:14.533Z,21.66
2016-09-28T01:27:14.961Z,21.67
2016-09-28T01:28:13.245Z,21.68
2016-09-28T01:29:12.273Z,21.68
2016-09-28T01:30:12.235Z,21.68
2016-09-28T01:31:15.050Z,21.67
2016-09-28T01:32:13.743Z,21.67
2016-09-28T01:33:12.524Z,21.69
2016-09-28T01:34:13.386Z,21.68
2016-09-28T01:35:13.196Z,21.68
2016-09-28T01:36:12.188Z,21.68
2016-09-28T01:37:13.508Z,21.68
2016-09-28T01:38:13.872Z,21.68
2016-09-28T01:39:13.896Z,21.68
2016-09-28T01:40:12.294Z,21.71
2016-09-28T01:41:14.265Z,21.69
2016-09-28T01:42:12.136Z,21.68
2016-09-28T01:43:12.240Z,21.69
2016-09-28T01:44:13.785Z,21.69
2016-09-28T01:45:14.161Z,21.69
2016-09-28T01:46:12.843Z,21.68
2016-09-28T01:47:09.863Z,21.68
2016-09-28T01:48:14.600Z,21.69
2016-09-28T01:49:11.837Z,21.69
2016-09-28T01:50:12.336Z,21.69
2016-09-28T01:51:13.897Z,21.69
2016-09-28T01:52:11.945Z,21.69
2016-09-28T01:53:14.470Z,21.70
2016-09-28T01:54:13.783Z,21.69
2016-09-28T01:55:13.188Z,21.69
2016-09-28T01:56:13.436Z,21.69
2016-09-28T01:57:13.370Z,21.69
2016-09-28T01:58:13.060Z,21.68
2016-09-28T01:59:12.170Z,21.69
2016-09-28T02:00:14.535Z,21.69
2016-09-28T02:01:15.481Z,21.69
2016-09-28T02:02:12.415Z,21.69
2016-09-28T02:03:12.849Z,21.75
2016-09-28T02:04:11.953Z,21.69
2016-09-28T02:05:14.422Z,21.69
2016-09-28T02:06:13.836Z,21.69
2016-09-28T02:07:12.494Z,21.69
2016-09-28T02:08:10.551Z,21.69
2016-09-28T02:09:12.032Z,21.69
2016-09-28T02:10:13.804Z,21.69
2016-09-28T02:11:09.862Z,21.68
2016-09-28T02:12:14.638Z,21.69
2016-09-28T02:13:12.248Z,21.68
2016-09-28T02:14:12.247Z,21.68
2016-09-28T02:15:12.831Z,21.70
2016-09-28T02:16:13.669Z,21.68
2016-09-28T02:17:12.435Z,21.68
2016-09-28T02:18:13.465Z,21.68
2016-09-28T02:19:12.485Z,21.68
2016-09-28T02:20:13.910Z,21.68
2016-09-28T02:21:10.976Z,21.68
2016-09-28T02:22:11.813Z,21.68
2016-09-28T02:23:11.734Z,21.69
2016-09-28T02:24:12.201Z,21.71
2016-09-28T02:25:12.424Z,21.69
2016-09-28T02:26:13.014Z,21.69
2016-09-28T02:27:12.105Z,21.68
2016-09-28T02:28:12.208Z,21.68
2016-09-28T02:29:12.139Z,21.68
2016-09-28T02:30:13.894Z,21.68
2016-09-28T02:31:14.431Z,21.69
2016-09-28T02:32:13.367Z,21.67
2016-09-28T02:33:13.535Z,21.68
2016-09-28T02:34:12.520Z,21.68
2016-09-28T02:35:12.426Z,21.68
2016-09-28T02:36:12.613Z,21.68
2016-09-28T02:37:13.637Z,21.67
2016-09-28T02:38:14.626Z,21.68
2016-09-28T02:39:13.373Z,21.70
2016-09-28T02:40:13.426Z,21.68
2016-09-28T02:41:13.422Z,21.68
2016-09-28T02:42:13.080Z,21.72
2016-09-28T02:43:13.917Z,21.67
2016-09-28T02:44:10.673Z,21.67
2016-09-28T02:45:09.757Z,21.67
2016-09-28T02:46:12.110Z,22.20
2016-09-28T02:47:12.189Z,22.27
2016-09-28T02:48:12.353Z,22.29
2016-09-28T02:49:13.583Z,22.32
2016-09-28T02:50:10.773Z,22.33
2016-09-28T02:51:12.361Z,21.98
2016-09-28T02:52:13.237Z,21.79
2016-09-28T02:53:12.435Z,21.74
2016-09-28T02:54:13.371Z,21.72
2016-09-28T02:55:12.053Z,21.77
2016-09-28T02:56:11.983Z,21.70
2016-09-28T02:57:12.110Z,21.69
2016-09-28T02:58:13.911Z,21.69
2016-09-28T02:59:12.428Z,21.69
2016-09-28T03:00:10.507Z,21.69
2016-09-28T03:01:11.862Z,21.69
2016-09-28T03:02:12.435Z,21.73
2016-09-28T03:03:11.202Z,21.67
2016-09-28T03:04:12.415Z,21.69
2016-09-28T03:05:11.590Z,21.68
2016-09-28T03:06:15.451Z,21.68
2016-09-28T03:07:13.304Z,21.69
2016-09-28T03:08:12.910Z,21.72
2016-09-28T03:09:12.464Z,21.69
2016-09-28T03:10:13.071Z,21.68
2016-09-28T03:11:12.066Z,21.68
2016-09-28T03:12:12.080Z,21.68
2016-09-28T03:13:10.576Z,21.67
2016-09-28T03:14:11.874Z,22.20
2016-09-28T03:15:12.237Z,22.26
2016-09-28T03:16:12.804Z,22.28
2016-09-28T03:17:13.019Z,22.31
2016-09-28T03:18:12.100Z,22.33
2016-09-28T03:19:12.157Z,21.95
2016-09-28T03:20:13.825Z,21.79
2016-09-28T03:21:12.985Z,21.73
2016-09-28T03:22:12.650Z,21.73
2016-09-28T03:23:17.320Z,21.71
2016-09-28T03:24:13.182Z,21.69
2016-09-28T03:25:12.064Z,21.70
2016-09-28T03:26:14.526Z,21.68
2016-09-28T03:27:13.561Z,21.68
2016-09-28T03:28:11.853Z,21.68
2016-09-28T03:29:13.024Z,22.21
2016-09-28T03:30:12.473Z,22.26
2016-09-28T03:31:11.655Z,21.77
2016-09-28T03:32:11.671Z,21.72
2016-09-28T03:33:12.370Z,21.70
2016-09-28T03:34:13.488Z,21.69
2016-09-28T03:35:12.025Z,21.75
2016-09-28T03:36:12.841Z,21.68
2016-09-28T03:37:12.631Z,21.69
2016-09-28T03:38:13.014Z,21.69
2016-09-28T03:39:12.164Z,21.68
2016-09-28T03:40:12.351Z,21.67
2016-09-28T03:41:13.393Z,21.67
2016-09-28T03:42:13.859Z,21.67
2016-09-28T03:43:12.397Z,21.68
2016-09-28T03:44:13.184Z,21.68
2016-09-28T03:45:14.005Z,21.67
2016-09-28T03:46:13.405Z,21.73
2016-09-28T03:47:12.335Z,21.68
2016-09-28T03:48:13.015Z,21.67
2016-09-28T03:49:12.454Z,21.73
2016-09-28T03:50:10.985Z,21.66
2016-09-28T03:51:12.604Z,22.20
2016-09-28T03:52:10.456Z,21.73
2016-09-28T03:53:13.099Z,21.70
2016-09-28T03:54:10.660Z,21.68
2016-09-28T03:55:12.473Z,21.72
2016-09-28T03:56:13.766Z,21.68
2016-09-28T03:57:13.709Z,21.67
2016-09-28T03:58:12.106Z,21.70
2016-09-28T03:59:12.784Z,21.67
2016-09-28T04:00:12.357Z,21.69
2016-09-28T04:01:12.833Z,21.68
2016-09-28T04:02:09.966Z,21.66
2016-09-28T04:03:12.836Z,21.67
2016-09-28T04:04:11.953Z,21.66
2016-09-28T04:05:10.678Z,21.67
2016-09-28T04:06:18.496Z,21.83
2016-09-28T04:07:13.251Z,21.72
2016-09-28T04:08:10.360Z,21.70
2016-09-28T04:09:12.387Z,21.69
2016-09-28T04:10:12.444Z,21.68
2016-09-28T04:11:12.106Z,21.70
2016-09-28T04:12:12.051Z,21.67
2016-09-28T04:13:12.624Z,21.66
2016-09-28T04:14:17.776Z,21.69
2016-09-28T04:15:12.765Z,21.67
2016-09-28T04:16:11.833Z,21.68
2016-09-28T04:17:13.431Z,21.66
2016-09-28T04:18:15.172Z,21.66
2016-09-28T04:19:12.579Z,21.67
2016-09-28T04:20:12.219Z,21.67
2016-09-28T04:21:12.291Z,21.67
2016-09-28T04:22:12.391Z,21.67
2016-09-28T04:23:13.001Z,21.71
2016-09-28T04:24:13.264Z,21.75
2016-09-28T04:25:14.610Z,21.66
2016-09-28T04:26:16.371Z,21.66
2016-09-28T04:27:14.197Z,21.66
2016-09-28T04:28:12.260Z,21.67
2016-09-28T04:29:11.020Z,21.66
2016-09-28T04:30:10.291Z,22.19
2016-09-28T04:31:13.179Z,21.89
2016-09-28T04:32:12.304Z,21.75
2016-09-28T04:33:13.791Z,21.71
2016-09-28T04:34:11.893Z,21.70
2016-09-28T04:35:12.441Z,21.68
2016-09-28T04:36:10.490Z,21.67
2016-09-28T04:37:13.073Z,21.69
2016-09-28T04:38:12.014Z,21.68
2016-09-28T04:39:11.989Z,21.67
2016-09-28T04:40:12.426Z,21.72
2016-09-28T04:41:12.829Z,21.67
2016-09-28T04:42:13.692Z,21.67
2016-09-28T04:43:11.769Z,21.67
2016-09-28T04:44:14.469Z,21.66
2016-09-28T04:45:13.120Z,21.66
2016-09-28T04:46:12.631Z,21.66
2016-09-28T04:47:11.754Z,21.66
2016-09-28T04:48:11.834Z,21.67
2016-09-28T04:49:13.503Z,21.66
2016-09-28T04:50:12.432Z,21.66
2016-09-28T04:51:12.329Z,21.67
2016-09-28T04:52:12.218Z,21.66
2016-09-28T04:53:12.171Z,21.66
2016-09-28T04:54:12.694Z,21.68
2016-09-28T04:55:12.293Z,21.66
2016-09-28T04:56:12.309Z,21.66
2016-09-28T04:57:12.376Z,21.66
2016-09-28T04:58:12.411Z,21.66
2016-09-28T04:59:12.341Z,21.66
2016-09-28T05:00:13.466Z,21.65
2016-09-28T05:01:13.485Z,21.72
2016-09-28T05:02:13.122Z,21.70
2016-09-28T05:03:13.020Z,21.66
2016-09-28T05:04:12.830Z,21.66
2016-09-28T05:05:13.464Z,21.66
2016-09-28T05:06:13.033Z,21.66
2016-09-28T05:07:13.740Z,21.66
2016-09-28T05:08:12.366Z,21.65
2016-09-28T05:09:14.024Z,21.66
2016-09-28T05:10:11.943Z,21.66
2016-09-28T05:11:12.905Z,21.66
2016-09-28T05:12:12.241Z,21.66
2016-09-28T05:13:10.987Z,21.65
2016-09-28T05:14:12.495Z,21.69
2016-09-28T05:15:13.387Z,21.66
2016-09-28T05:16:13.195Z,21.66
2016-09-28T05:17:12.882Z,21.66
2016-09-28T05:18:12.360Z,21.66
2016-09-28T05:19:10.398Z,21.65
2016-09-28T05:20:12.841Z,21.66
2016-09-28T05:21:09.782Z,21.65
2016-09-28T05:22:12.854Z,21.67
2016-09-28T05:23:11.953Z,21.67
2016-09-28T05:24:13.485Z,21.68
2016-09-28T05:25:18.593Z,21.72
2016-09-28T05:26:13.022Z,21.69
2016-09-28T05:27:09.447Z,21.68
2016-09-28T05:28:12.176Z,21.73
2016-09-28T05:29:12.759Z,21.72
2016-09-28T05:30:13.214Z,21.70
2016-09-28T05:31:14.061Z,21.69
2016-09-28T05:32:11.872Z,21.70
2016-09-28T05:33:11.836Z,21.70
2016-09-28T05:34:12.732Z,21.70
2016-09-28T05:35:12.351Z,21.69
2016-09-28T05:36:13.636Z,21.69
2016-09-28T05:37:11.730Z,21.64
2016-09-28T05:38:11.767Z,21.64
2016-09-28T05:39:12.364Z,21.63
2016-09-28T05:40:10.537Z,21.63
2016-09-28T05:41:13.628Z,21.63
2016-09-28T05:42:12.370Z,21.63
2016-09-28T05:43:12.359Z,21.62
2016-09-28T05:44:12.294Z,21.62
2016-09-28T05:45:12.641Z,21.67
2016-09-28T05:46:12.565Z,21.62
2016-09-28T05:47:11.679Z,21.63
2016-09-28T05:48:12.592Z,21.63
2016-09-28T05:49:09.860Z,21.62
2016-09-28T05:50:14.572Z,21.63
2016-09-28T05:51:12.382Z,21.63
2016-09-28T05:52:13.229Z,21.63
2016-09-28T05:53:12.820Z,21.66
2016-09-28T05:54:10.586Z,21.64
2016-09-28T05:55:12.438Z,21.64
2016-09-28T05:56:12.419Z,21.64
2016-09-28T05:57:12.438Z,21.64
2016-09-28T05:58:12.509Z,21.64
2016-09-28T05:59:13.189Z,21.65
2016-09-28T06:00:12.185Z,21.65
2016-09-28T06:01:10.857Z,21.64
2016-09-28T06:02:12.653Z,22.19
2016-09-28T06:03:13.300Z,22.24
2016-09-28T06:04:14.018Z,22.27
2016-09-28T06:05:12.625Z,22.28
2016-09-28T06:06:12.196Z,22.30
2016-09-28T06:07:13.188Z,22.30
2016-09-28T06:08:12.674Z,22.31
2016-09-28T06:09:12.403Z,22.32
2016-09-28T06:10:13.318Z,22.33
2016-09-28T06:11:12.826Z,22.34
2016-09-28T06:12:12.396Z,22.33
2016-09-28T06:13:13.014Z,22.33
2016-09-28T06:14:12.383Z,22.35
2016-09-28T06:15:13.308Z,21.81
2016-09-28T06:16:13.049Z,21.75
2016-09-28T06:17:12.195Z,21.72
2016-09-28T06:18:12.114Z,21.69
2016-09-28T06:19:13.609Z,21.70
2016-09-28T06:20:13.342Z,21.64
2016-09-28T06:21:12.371Z,21.64
2016-09-28T06:22:12.502Z,21.60
2016-09-28T06:23:13.066Z,21.64
2016-09-28T06:24:13.872Z,21.59
2016-09-28T06:25:11.867Z,21.58
2016-09-28T06:26:10.626Z,21.56
2016-09-28T06:27:12.832Z,21.56
2016-09-28T06:28:12.176Z,21.58
2016-09-28T06:29:12.274Z,21.54
2016-09-28T06:30:14.012Z,21.45
2016-09-28T06:31:12.594Z,20.75
2016-09-28T06:32:10.529Z,20.18
2016-09-28T06:33:12.026Z,20.17
2016-09-28T06:34:13.047Z,19.94
2016-09-28T06:35:12.096Z,19.77
2016-09-28T06:36:13.938Z,19.76
2016-09-28T06:37:12.476Z,19.50
2016-09-28T06:38:12.359Z,19.00
2016-09-28T06:39:12.831Z,18.91
2016-09-28T06:40:11.953Z,18.73
2016-09-28T06:41:12.135Z,18.62
2016-09-28T06:42:13.156Z,18.41
2016-09-28T06:43:10.950Z,18.30
2016-09-28T06:44:13.410Z,18.43
2016-09-28T06:45:12.849Z,18.05
2016-09-28T06:46:11.814Z,18.35
2016-09-28T06:47:11.866Z,18.76
2016-09-28T06:48:12.203Z,19.09
2016-09-28T06:49:12.202Z,19.29
2016-09-28T06:50:12.084Z,19.51
2016-09-28T06:51:12.261Z,19.72
2016-09-28T06:52:12.851Z,19.96
2016-09-28T06:53:12.523Z,20.02
2016-09-28T06:54:11.540Z,20.13
2016-09-28T06:55:11.984Z,20.22
2016-09-28T06:56:12.284Z,20.28
2016-09-28T06:57:13.300Z,20.37
2016-09-28T06:58:12.639Z,20.50
2016-09-28T06:59:17.549Z,20.56
2016-09-28T07:00:11.033Z,20.56
2016-09-28T07:01:13.933Z,20.60
2016-09-28T07:02:12.578Z,20.65
2016-09-28T07:03:12.220Z,20.67
2016-09-28T07:04:12.335Z,20.70
2016-09-28T07:05:13.414Z,20.74
2016-09-28T07:06:11.258Z,20.76
2016-09-28T07:07:13.330Z,20.80
2016-09-28T07:08:12.386Z,20.82
2016-09-28T07:09:12.827Z,20.88
2016-09-28T07:10:12.611Z,20.87
2016-09-28T07:11:12.063Z,20.91
2016-09-28T07:12:12.184Z,20.90
2016-09-28T07:13:12.754Z,20.92
2016-09-28T07:14:10.658Z,20.93
2016-09-28T07:15:11.798Z,20.95
2016-09-28T07:16:10.795Z,20.96
2016-09-28T07:17:13.414Z,21.52
2016-09-28T07:18:13.254Z,21.59
2016-09-28T07:19:12.667Z,21.14
2016-09-28T07:20:11.779Z,21.07
2016-09-28T07:21:11.839Z,21.07
2016-09-28T07:22:09.939Z,21.07
2016-09-28T07:23:10.984Z,21.07
2016-09-28T07:24:12.731Z,21.08
2016-09-28T07:25:11.787Z,21.09
2016-09-28T07:26:12.415Z,21.13
2016-09-28T07:27:12.548Z,21.11
2016-09-28T07:28:13.531Z,21.12
2016-09-28T07:29:11.094Z,21.12
2016-09-28T07:30:12.300Z,21.14
2016-09-28T07:31:13.057Z,21.15
2016-09-28T07:32:12.715Z,21.15
2016-09-28T07:33:11.755Z,21.16
2016-09-28T07:34:12.305Z,21.22
2016-09-28T07:35:12.846Z,21.18
2016-09-28T07:36:11.881Z,21.18
2016-09-28T07:37:10.649Z,21.19
2016-09-28T07:38:12.055Z,21.19
2016-09-28T07:39:12.422Z,21.23
2016-09-28T07:40:13.230Z,21.21
2016-09-28T07:41:12.272Z,21.22
2016-09-28T07:42:12.834Z,21.22
2016-09-28T07:43:11.881Z,21.23
2016-09-28T07:44:11.964Z,21.24
2016-09-28T07:45:11.856Z,21.24
2016-09-28T07:46:13.608Z,21.25
2016-09-28T07:47:11.555Z,21.25
2016-09-28T07:48:12.635Z,21.26
2016-09-28T07:49:12.453Z,21.26
2016-09-28T07:50:13.463Z,21.27
2016-09-28T07:51:13.146Z,21.28
2016-09-28T07:52:12.140Z,21.28
2016-09-28T07:53:12.833Z,21.28
2016-09-28T07:54:11.935Z,21.29
2016-09-28T07:55:12.407Z,21.35
2016-09-28T07:56:10.532Z,21.30
2016-09-28T07:57:11.758Z,21.30
2016-09-28T07:58:12.774Z,21.30
2016-09-28T07:59:11.795Z,21.31
2016-09-28T08:00:11.795Z,21.32
2016-09-28T08:01:16.138Z,21.32
2016-09-28T08:02:12.456Z,21.33
2016-09-28T08:03:12.858Z,21.37
2016-09-28T08:04:11.858Z,21.33
2016-09-28T08:05:12.731Z,21.34
2016-09-28T08:06:11.841Z,21.34
2016-09-28T08:07:11.887Z,21.34
2016-09-28T08:08:12.404Z,21.36
2016-09-28T08:09:16.094Z,21.35
2016-09-28T08:10:12.287Z,21.36
2016-09-28T08:11:12.615Z,21.42
2016-09-28T08:12:12.525Z,21.37
2016-09-28T08:13:11.924Z,21.40
2016-09-28T08:14:09.303Z,21.38
2016-09-28T08:15:12.500Z,21.38
2016-09-28T08:16:14.480Z,21.38
2016-09-28T08:17:13.084Z,21.44
2016-09-28T08:18:12.791Z,21.42
2016-09-28T08:19:12.386Z,21.92
2016-09-28T08:20:12.453Z,21.98
2016-09-28T08:21:13.020Z,22.02
2016-09-28T08:22:12.526Z,22.04
2016-09-28T08:23:11.827Z,22.05
2016-09-28T08:24:11.719Z,22.06
2016-09-28T08:25:13.369Z,22.06
2016-09-28T08:26:13.016Z,21.70
2016-09-28T08:27:13.223Z,21.54
2016-09-28T08:28:12.248Z,21.49
2016-09-28T08:29:12.977Z,21.48
2016-09-28T08:30:13.656Z,21.45
2016-09-28T08:31:13.294Z,21.46
2016-09-28T08:32:13.817Z,21.45
2016-09-28T08:33:12.222Z,21.50
2016-09-28T08:34:13.765Z,21.46
2016-09-28T08:35:12.206Z,21.52
2016-09-28T08:36:12.714Z,21.45
2016-09-28T08:37:11.970Z,21.46
2016-09-28T08:38:14.103Z,21.46
2016-09-28T08:39:12.933Z,21.45
2016-09-28T08:40:13.443Z,21.46
2016-09-28T08:41:12.398Z,21.46
2016-09-28T08:42:12.511Z,21.47
2016-09-28T08:43:12.458Z,21.46
2016-09-28T08:44:13.204Z,21.46
2016-09-28T08:45:12.815Z,21.46
2016-09-28T08:46:11.815Z,21.47
2016-09-28T08:47:11.753Z,21.47
2016-09-28T08:48:13.019Z,21.47
2016-09-28T08:49:09.506Z,21.46
2016-09-28T08:50:12.336Z,21.48
2016-09-28T08:51:12.419Z,21.48
2016-09-28T08:52:13.051Z,21.51
2016-09-28T08:53:12.647Z,21.48
2016-09-28T08:54:11.575Z,21.49
2016-09-28T08:55:11.501Z,21.49
2016-09-28T08:56:12.914Z,21.55
2016-09-28T08:57:10.593Z,21.49
2016-09-28T08:58:11.855Z,21.50
2016-09-28T08:59:12.517Z,21.50
2016-09-28T09:00:14.415Z,21.51
2016-09-28T09:01:12.303Z,21.50
2016-09-28T09:02:13.806Z,21.51
2016-09-28T09:03:11.654Z,21.51
2016-09-28T09:04:13.599Z,21.51
2016-09-28T09:05:12.142Z,21.51
2016-09-28T09:06:12.852Z,21.52
2016-09-28T09:07:11.805Z,21.52
2016-09-28T09:08:11.780Z,21.51
2016-09-28T09:09:13.634Z,21.51
2016-09-28T09:10:11.692Z,21.52
2016-09-28T09:11:15.946Z,21.52
2016-09-28T09:12:10.731Z,21.52
2016-09-28T09:13:11.999Z,21.53
2016-09-28T09:14:12.063Z,21.53
2016-09-28T09:15:12.814Z,21.53
2016-09-28T09:16:11.805Z,21.54
2016-09-28T09:17:10.403Z,21.54
2016-09-28T09:18:11.749Z,22.08
2016-09-28T09:19:12.566Z,22.14
2016-09-28T09:20:12.370Z,22.16
2016-09-28T09:21:13.182Z,22.18
2016-09-28T09:22:12.835Z,21.84
2016-09-28T09:23:12.375Z,21.69
2016-09-28T09:24:13.014Z,21.65
2016-09-28T09:25:12.864Z,21.60
2016-09-28T09:26:11.808Z,21.59
2016-09-28T09:27:13.654Z,21.58
2016-09-28T09:28:12.352Z,21.58
2016-09-28T09:29:12.842Z,21.61
2016-09-28T09:30:12.633Z,21.58
2016-09-28T09:31:11.656Z,21.59
2016-09-28T09:32:12.215Z,21.58
2016-09-28T09:33:12.833Z,21.58
2016-09-28T09:34:12.431Z,21.59
2016-09-28T09:35:12.363Z,21.59
2016-09-28T09:36:12.469Z,21.59
2016-09-28T09:37:12.256Z,21.59
2016-09-28T09:38:12.890Z,21.64
2016-09-28T09:39:12.405Z,21.60
2016-09-28T09:40:12.399Z,21.59
2016-09-28T09:41:12.713Z,21.65
2016-09-28T09:42:12.281Z,21.63
2016-09-28T09:43:13.579Z,21.61
2016-09-28T09:44:13.109Z,21.61
2016-09-28T09:45:13.236Z,21.61
2016-09-28T09:46:12.285Z,21.61
2016-09-28T09:47:15.224Z,21.62
2016-09-28T09:48:12.196Z,21.61
2016-09-28T09:49:12.122Z,21.61
2016-09-28T09:50:12.002Z,21.62
2016-09-28T09:51:12.770Z,21.62
2016-09-28T09:52:17.606Z,21.62
2016-09-28T09:53:14.096Z,21.63
2016-09-28T09:54:11.034Z,21.63
2016-09-28T09:55:12.805Z,21.63
2016-09-28T09:56:10.731Z,21.62
2016-09-28T09:57:09.865Z,21.62
2016-09-28T09:58:12.267Z,22.17
2016-09-28T09:59:12.268Z,22.21
2016-09-28T10:00:14.102Z,22.25
2016-09-28T10:01:11.908Z,22.26
2016-09-28T10:02:11.976Z,22.29
2016-09-28T10:03:12.555Z,22.29
2016-09-28T10:04:13.287Z,22.29
2016-09-28T10:05:12.300Z,22.30
2016-09-28T10:06:14.974Z,22.31
2016-09-28T10:07:12.661Z,22.30
2016-09-28T10:08:11.755Z,21.93
2016-09-28T10:09:11.738Z,21.76
2016-09-28T10:10:11.684Z,21.71
2016-09-28T10:11:11.635Z,21.69
2016-09-28T10:12:11.679Z,21.68
2016-09-28T10:13:12.207Z,21.72
2016-09-28T10:14:11.258Z,21.66
2016-09-28T10:15:12.433Z,21.66
2016-09-28T10:16:12.308Z,21.66
2016-09-28T10:17:12.927Z,21.71
2016-09-28T10:18:12.544Z,21.66
2016-09-28T10:19:11.494Z,21.67
2016-09-28T10:20:11.547Z,21.66
2016-09-28T10:21:13.022Z,21.70
2016-09-28T10:22:12.776Z,21.66
2016-09-28T10:23:11.833Z,21.66
2016-09-28T10:24:11.907Z,21.67
2016-09-28T10:25:10.066Z,21.66
2016-09-28T10:26:12.039Z,21.67
2016-09-28T10:27:12.109Z,21.67
2016-09-28T10:28:13.705Z,21.67
2016-09-28T10:29:11.697Z,21.67
2016-09-28T10:30:12.411Z,21.68
2016-09-28T10:31:12.262Z,21.69
2016-09-28T10:32:12.742Z,21.71
2016-09-28T10:33:09.780Z,21.67
2016-09-28T10:34:11.981Z,21.69
2016-09-28T10:35:12.208Z,21.69
2016-09-28T10:36:13.043Z,21.69
2016-09-28T10:37:10.928Z,21.69
2016-09-28T10:38:12.607Z,21.69
2016-09-28T10:39:11.757Z,21.70
2016-09-28T10:40:12.498Z,21.70
2016-09-28T10:41:13.187Z,21.69
2016-09-28T10:42:12.822Z,21.70
2016-09-28T10:43:11.814Z,21.70
2016-09-28T10:44:12.192Z,21.73
2016-09-28T10:45:12.329Z,21.70
2016-09-28T10:46:12.691Z,21.71
2016-09-28T10:47:13.255Z,21.70
2016-09-28T10:48:13.992Z,21.71
2016-09-28T10:49:12.048Z,21.71
2016-09-28T10:50:13.748Z,21.71
2016-09-28T10:51:11.583Z,21.72
2016-09-28T10:52:12.487Z,21.71
2016-09-28T10:53:11.608Z,21.72
2016-09-28T10:54:12.276Z,21.71
2016-09-28T10:55:12.615Z,21.75
2016-09-28T10:56:12.283Z,21.74
2016-09-28T10:57:12.347Z,21.72
2016-09-28T10:58:12.996Z,21.72
2016-09-28T10:59:12.129Z,21.73
2016-09-28T11:00:12.053Z,21.72
2016-09-28T11:01:12.815Z,21.72
2016-09-28T11:02:12.252Z,21.74
2016-09-28T11:03:12.325Z,21.72
2016-09-28T11:04:12.315Z,21.73
2016-09-28T11:05:12.274Z,21.72
2016-09-28T11:06:10.378Z,21.73
2016-09-28T11:07:13.223Z,21.74
2016-09-28T11:08:09.860Z,21.73
2016-09-28T11:09:12.033Z,21.73
2016-09-28T11:10:12.078Z,21.74
2016-09-28T11:11:12.604Z,21.76
2016-09-28T11:12:11.553Z,21.74
2016-09-28T11:13:12.525Z,21.74
2016-09-28T11:14:12.334Z,21.74
2016-09-28T11:15:12.848Z,21.75
2016-09-28T11:16:09.964Z,21.74
2016-09-28T11:17:12.133Z,21.75
2016-09-28T11:18:11.044Z,21.75
2016-09-28T11:19:12.129Z,21.75
2016-09-28T11:20:12.164Z,21.75
2016-09-28T11:21:12.099Z,21.76
2016-09-28T11:22:12.268Z,21.76
2016-09-28T11:23:12.180Z,21.76
2016-09-28T11:24:14.119Z,21.76
2016-09-28T11:25:12.681Z,21.76
2016-09-28T11:26:13.507Z,21.76
2016-09-28T11:27:12.613Z,21.77
2016-09-28T11:28:12.388Z,21.77
2016-09-28T11:29:17.966Z,21.77
2016-09-28T11:30:12.037Z,21.77
2016-09-28T11:31:12.030Z,21.77
2016-09-28T11:32:13.847Z,21.78
2016-09-28T11:33:11.743Z,21.78
2016-09-28T11:34:11.864Z,21.78
2016-09-28T11:35:12.375Z,21.78
2016-09-28T11:36:12.839Z,21.81
2016-09-28T11:37:11.943Z,21.79
2016-09-28T11:38:13.909Z,21.78
2016-09-28T11:39:12.865Z,21.78
2016-09-28T11:40:12.458Z,21.79
2016-09-28T11:41:12.378Z,21.79
2016-09-28T11:42:12.477Z,21.79
2016-09-28T11:43:12.654Z,21.79
2016-09-28T11:44:12.614Z,21.79
2016-09-28T11:45:11.572Z,21.79
2016-09-28T11:46:13.353Z,21.80
2016-09-28T11:47:12.329Z,21.80
2016-09-28T11:48:13.056Z,21.81
2016-09-28T11:49:12.559Z,21.83
2016-09-28T11:50:11.726Z,21.80
2016-09-28T11:51:12.572Z,21.81
2016-09-28T11:52:12.194Z,21.87
2016-09-28T11:53:12.273Z,21.81
2016-09-28T11:54:13.033Z,21.81
2016-09-28T11:55:11.955Z,21.81
2016-09-28T11:56:12.441Z,21.87
2016-09-28T11:57:12.297Z,21.81
2016-09-28T11:58:12.334Z,21.81
2016-09-28T11:59:13.045Z,21.81
2016-09-28T12:00:13.828Z,21.81
2016-09-28T12:01:12.272Z,21.86
2016-09-28T12:02:12.223Z,21.82
2016-09-28T12:03:12.268Z,21.81
2016-09-28T12:04:12.386Z,21.81
2016-09-28T12:05:13.141Z,21.81
2016-09-28T12:06:11.086Z,21.80
2016-09-28T12:07:12.636Z,22.35
2016-09-28T12:08:12.111Z,22.41
2016-09-28T12:09:12.001Z,22.43
2016-09-28T12:10:12.168Z,22.45
2016-09-28T12:11:14.145Z,22.47
2016-09-28T12:12:12.676Z,22.47
2016-09-28T12:13:09.013Z,22.46
2016-09-28T12:14:14.987Z,21.93
2016-09-28T12:15:12.465Z,21.91
2016-09-28T12:16:12.403Z,21.86
2016-09-28T12:17:12.964Z,21.89
2016-09-28T12:18:12.312Z,21.88
2016-09-28T12:19:12.203Z,21.84
2016-09-28T12:20:12.207Z,21.83
2016-09-28T12:21:12.950Z,21.83
2016-09-28T12:22:12.686Z,21.83
2016-09-28T12:23:13.056Z,21.83
2016-09-28T12:24:12.687Z,21.82
2016-09-28T12:25:13.167Z,21.82
2016-09-28T12:26:12.354Z,21.81
2016-09-28T12:27:13.993Z,21.82
2016-09-28T12:28:12.831Z,21.81
2016-09-28T12:29:11.814Z,21.81
2016-09-28T12:30:11.804Z,21.82
2016-09-28T12:31:13.424Z,21.82
2016-09-28T12:32:13.204Z,21.82
2016-09-28T12:33:09.500Z,21.82
2016-09-28T12:34:10.893Z,21.82
2016-09-28T12:35:11.967Z,21.84
2016-09-28T12:36:12.495Z,21.88
2016-09-28T12:37:13.228Z,21.84
2016-09-28T12:38:12.152Z,21.82
2016-09-28T12:39:12.851Z,21.83
2016-09-28T12:40:12.346Z,21.83
2016-09-28T12:41:14.167Z,21.83
2016-09-28T12:42:12.927Z,21.83
2016-09-28T12:43:10.877Z,21.83
2016-09-28T12:44:12.634Z,21.84
2016-09-28T12:45:12.337Z,21.83
2016-09-28T12:46:12.328Z,21.83
2016-09-28T12:47:12.350Z,21.83
2016-09-28T12:48:13.060Z,21.84
2016-09-28T12:49:12.282Z,21.83
2016-09-28T12:50:12.853Z,21.83
2016-09-28T12:51:11.842Z,21.83
2016-09-28T12:52:11.843Z,21.83